Time;durP1;ratioP1;P1;durP2;ratioP2;P2;SDS_P1;SDS_P2;PMS_P1;PMS_P2;Temp;Humidity;BMP_temperature;BMP_pressure;BME280_temperature;BME280_humidity;BME280_pressure;Samples;Min_cycle;Max_cycle;Signal;HPM_P1;HPM_P2
2022/11/01 08:01:41;;;;;;;7.53;2.72;;;;;;;13.02;72.53;101149.03;5270811;28;20411;-68
2022/11/01 08:04:12;;;;;;;8.93;2.95;;;;;;;13.03;72.49;101156.22;5258428;28;20025;-70
2022/11/01 08:06:43;;;;;;;11.55;2.50;;;;;;;13.10;71.81;101152.28;5257869;28;20083;-69
2022/11/01 08:09:14;;;;;;;9.50;2.58;;;;;;;13.09;71.67;101156.16;5250145;28;20045;-68
2022/11/01 08:11:46;;;;;;;7.07;2.40;;;;;;;13.13;71.84;101163.63;5253382;28;20029;-69
2022/11/01 08:14:17;;;;;;;10.40;3.13;;;;;;;13.14;71.86;101161.66;5247086;28;20032;-71
2022/11/01 08:16:54;;;;;;;8.32;2.20;;;;;;;13.21;74.32;101162.94;5257009;28;20087;-71
2022/11/01 08:19:25;;;;;;;8.85;2.45;;;;;;;13.22;71.81;101164.63;5264376;28;20112;-71
2022/11/01 08:21:58;;;;;;;9.43;2.55;;;;;;;13.20;71.33;101172.44;5254908;28;20403;-73
2022/11/01 08:24:29;;;;;;;5.47;2.20;;;;;;;13.25;71.88;101180.72;5257798;28;20037;-76
2022/11/01 08:27:02;;;;;;;9.00;2.38;;;;;;;13.23;70.93;101176.59;5256146;28;20025;-74
2022/11/01 08:29:33;;;;;;;7.95;2.10;;;;;;;13.25;71.03;101177.13;5248752;28;20049;-75
2022/11/01 08:32:04;;;;;;;10.27;3.20;;;;;;;13.22;70.28;101186.09;5254481;28;20140;-76
2022/11/01 08:34:36;;;;;;;19.05;9.55;;;;;;;13.22;70.59;101183.31;5256741;28;20178;-76
2022/11/01 08:37:07;;;;;;;11.23;4.60;;;;;;;13.24;70.71;101189.38;5258154;28;20021;-74
2022/11/01 08:39:38;;;;;;;9.50;3.05;;;;;;;13.32;70.50;101185.13;5258000;28;20021;-75
2022/11/01 08:42:10;;;;;;;8.43;2.53;;;;;;;13.30;69.72;101193.81;5257081;28;20041;-77
2022/11/01 08:44:41;;;;;;;10.30;2.65;;;;;;;13.36;70.03;101198.16;5258016;28;20025;-76
2022/11/01 08:47:12;;;;;;;8.65;2.75;;;;;;;13.38;69.99;101186.72;5257619;28;20028;-75
2022/11/01 08:49:44;;;;;;;16.92;3.60;;;;;;;13.36;69.61;101192.59;5256651;28;20024;-78
2022/11/01 08:52:15;;;;;;;7.60;3.08;;;;;;;13.40;69.37;101188.09;5257362;28;20465;-76
2022/11/01 08:54:47;;;;;;;8.27;2.28;;;;;;;13.41;69.71;101195.31;5257929;28;20506;-77
2022/11/01 08:57:18;;;;;;;11.52;2.60;;;;;;;13.47;69.33;101199.69;5263815;28;20030;-77
2022/11/01 08:59:49;;;;;;;10.55;2.70;;;;;;;13.41;69.04;101206.44;5257439;28;20078;-76
2022/11/01 09:02:21;;;;;;;8.63;2.92;;;;;;;13.46;69.51;101205.56;5257298;28;20033;-77
2022/11/01 09:04:52;;;;;;;7.85;2.40;;;;;;;13.45;69.32;101207.50;5257217;28;20101;-77
2022/11/01 09:07:23;;;;;;;14.38;3.80;;;;;;;13.55;69.28;101214.06;5254012;28;20111;-75
2022/11/01 09:09:55;;;;;;;8.98;2.70;;;;;;;13.60;69.10;101208.41;5256428;28;20029;-76
2022/11/01 09:12:26;;;;;;;9.23;2.47;;;;;;;13.57;69.69;101217.38;5246277;28;20048;-77
2022/11/01 09:14:58;;;;;;;6.20;2.40;;;;;;;13.60;69.48;101216.75;5239997;28;20028;-77
2022/11/01 09:17:29;;;;;;;10.77;3.05;;;;;;;13.64;69.60;101224.22;5242033;28;20566;-77
2022/11/01 09:20:01;;;;;;;8.73;2.95;;;;;;;13.70;69.80;101224.97;5243375;28;20021;-76
2022/11/01 09:22:32;;;;;;;7.65;2.80;;;;;;;13.69;69.46;101234.47;5242568;28;20025;-75
2022/11/01 09:25:04;;;;;;;12.85;3.35;;;;;;;13.77;71.70;101238.53;5245083;28;20017;-76
2022/11/01 09:27:35;;;;;;;8.07;2.75;;;;;;;13.84;71.05;101239.81;5242171;28;20036;-76
2022/11/01 09:30:07;;;;;;;12.35;3.13;;;;;;;13.87;70.29;101230.03;5242608;28;20496;-77
2022/11/01 09:32:39;;;;;;;6.07;2.50;;;;;;;13.89;70.96;101234.16;5241648;28;20033;-76
2022/11/01 09:35:10;;;;;;;10.23;2.97;;;;;;;13.91;69.77;101243.06;5248575;28;20021;-77
2022/11/01 09:37:41;;;;;;;9.20;2.25;;;;;;;13.95;69.99;101248.03;5242599;28;20381;-77
2022/11/01 09:40:14;;;;;;;9.15;2.47;;;;;;;13.90;70.27;101252.53;5242353;28;20121;-76
2022/11/01 09:42:46;;;;;;;10.70;3.17;;;;;;;14.01;70.55;101257.97;5242382;28;20436;-77
2022/11/01 09:45:25;;;;;;;11.27;2.95;;;;;;;14.16;73.48;101257.72;5239913;28;20104;-77
2022/11/01 09:47:57;;;;;;;8.00;2.70;;;;;;;13.97;69.38;101268.91;5249061;28;20036;-77
2022/11/01 09:50:33;;;;;;;13.00;3.22;;;;;;;13.96;69.22;101271.97;5242524;28;20112;-76
2022/11/01 09:53:15;;;;;;;14.18;3.50;;;;;;;14.00;69.68;101273.03;5244708;28;20029;-74
2022/11/01 09:55:53;;;;;;;11.52;2.85;;;;;;;14.03;69.84;101273.25;5244878;28;20044;-77
2022/11/01 09:58:53;;;;;;;9.05;2.80;;;;;;;14.14;70.68;101279.53;5242180;28;20029;-75
2022/11/01 10:01:43;;;;;;;10.55;3.53;;;;;;;14.17;69.72;101273.34;5236121;28;20089;-77
2022/11/01 10:04:18;;;;;;;6.72;2.47;;;;;;;14.11;69.63;101292.13;5241937;28;20029;-76
2022/11/01 10:07:08;;;;;;;9.25;3.00;;;;;;;14.16;69.46;101290.38;5241074;28;20096;-77
2022/11/01 10:09:54;;;;;;;11.43;2.80;;;;;;;14.28;70.31;101291.56;5241892;28;20100;-76
2022/11/01 10:12:53;;;;;;;9.90;2.40;;;;;;;14.36;69.51;101296.44;5237097;28;20052;-76
2022/11/01 10:15:48;;;;;;;7.80;3.08;;;;;;;14.28;69.77;101302.72;5231918;28;20100;-78
2022/11/01 10:18:45;;;;;;;11.43;3.72;;;;;;;14.30;69.39;101310.78;5239240;28;20396;-79
2022/11/01 10:21:20;;;;;;;12.23;2.97;;;;;;;14.43;74.41;101306.41;5232277;28;20044;-79
2022/11/01 10:23:55;;;;;;;8.50;2.83;;;;;;;14.36;70.24;101310.38;5240632;28;20163;-76
2022/11/01 10:26:29;;;;;;;12.10;4.97;;;;;;;14.39;69.89;101308.94;5242403;28;20499;-76
2022/11/01 10:29:14;;;;;;;11.38;2.50;;;;;;;14.32;68.56;101306.56;5241073;28;20064;-74
2022/11/01 10:31:50;;;;;;;8.77;3.58;;;;;;;14.44;69.59;101306.06;5249161;28;20380;-74
2022/11/01 10:34:27;;;;;;;7.88;2.53;;;;;;;14.48;69.20;101309.09;5236949;28;20048;-73
2022/11/01 10:37:34;;;;;;;9.82;3.55;;;;;;;14.61;69.16;101315.91;5241199;28;20112;-73
2022/11/01 10:40:16;;;;;;;12.98;3.05;;;;;;;14.64;69.35;101310.53;5241285;28;20062;-73
2022/11/01 10:42:47;;;;;;;9.63;2.83;;;;;;;14.69;68.75;101318.81;5241486;28;20548;-76
2022/11/01 10:45:21;;;;;;;10.35;2.30;;;;;;;14.68;68.68;101316.34;5241572;28;20057;-74
2022/11/01 10:47:57;;;;;;;9.40;2.92;;;;;;;14.66;67.98;101308.25;5241501;28;20030;-76
2022/11/01 10:50:29;;;;;;;10.90;2.60;;;;;;;14.74;67.80;101303.94;5241071;28;20080;-75
2022/11/01 10:53:05;;;;;;;8.57;2.30;;;;;;;14.72;66.93;101307.03;5241090;28;20033;-77
2022/11/01 10:55:56;;;;;;;12.32;3.88;;;;;;;14.85;67.62;101315.75;5241103;28;20026;-76
2022/11/01 10:58:36;;;;;;;7.05;2.50;;;;;;;14.86;67.42;101311.84;5241463;28;20032;-77
2022/11/01 11:01:17;;;;;;;13.68;2.92;;;;;;;14.92;67.08;101305.00;5240059;28;20053;-76
2022/11/01 11:03:50;;;;;;;10.43;2.63;;;;;;;14.92;66.74;101307.78;5246741;28;20053;-77
2022/11/01 11:06:21;;;;;;;7.47;2.88;;;;;;;14.94;67.22;101320.31;5239237;28;20536;-79
2022/11/01 11:08:55;;;;;;;11.80;2.95;;;;;;;14.98;66.47;101320.50;5239127;28;20029;-76
2022/11/01 11:11:34;;;;;;;8.48;3.08;;;;;;;15.02;66.38;101304.81;5239934;28;20033;-78
2022/11/01 11:14:08;;;;;;;10.77;2.90;;;;;;;15.00;66.01;101312.66;5235754;28;20025;-76
2022/11/01 11:16:45;;;;;;;10.88;3.05;;;;;;;15.04;66.64;101313.72;5232127;28;20104;-82
2022/11/01 11:19:27;;;;;;;14.98;3.53;;;;;;;15.16;67.82;101322.41;5241908;28;20091;-79
2022/11/01 11:22:01;;;;;;;12.63;2.72;;;;;;;15.16;66.27;101310.41;5241955;28;20032;-81
2022/11/01 11:24:42;;;;;;;9.45;3.72;;;;;;;15.19;66.27;101310.63;5242544;28;20022;-82
2022/11/01 11:27:16;;;;;;;37.58;26.38;;;;;;;15.31;66.60;101304.50;5239653;28;20021;-78
2022/11/01 11:29:54;;;;;;;7.95;2.90;;;;;;;15.39;65.67;101308.53;5241050;28;20052;-80
2022/11/01 11:32:34;;;;;;;5.95;2.60;;;;;;;15.39;65.59;101309.38;5239771;28;20033;-74
2022/11/01 11:35:15;;;;;;;9.77;2.88;;;;;;;15.44;65.67;101311.22;5240457;28;20513;-75
2022/11/01 11:38:05;;;;;;;9.60;2.92;;;;;;;15.50;65.61;101314.75;5233042;28;20033;-81
2022/11/01 11:40:40;;;;;;;7.38;2.25;;;;;;;15.51;65.13;101303.25;5233943;28;20040;-81
2022/11/01 11:43:17;;;;;;;9.35;2.67;;;;;;;15.59;65.30;101304.50;5241040;28;20030;-81
2022/11/01 11:46:19;;;;;;;7.07;2.22;;;;;;;15.65;65.76;101312.47;5236470;28;20053;-79
2022/11/01 11:49:00;;;;;;;11.55;2.38;;;;;;;15.69;64.83;101306.25;5230181;28;20033;-79
2022/11/01 11:51:36;;;;;;;7.63;2.15;;;;;;;15.64;64.81;101310.78;5242100;28;20381;-79
2022/11/01 11:54:18;;;;;;;8.93;2.10;;;;;;;15.73;64.92;101307.31;5241426;28;20025;-80
2022/11/01 11:56:51;;;;;;;7.20;2.20;;;;;;;15.69;65.09;101304.31;5241162;28;20026;-79
2022/11/01 11:59:31;;;;;;;8.02;2.03;;;;;;;15.75;65.30;101310.63;5239325;28;20032;-78
2022/11/01 12:02:04;;;;;;;8.25;2.38;;;;;;;15.79;64.83;101314.44;5239885;28;20030;-78
2022/11/01 12:04:40;;;;;;;5.78;2.10;;;;;;;15.82;64.58;101311.00;5238447;28;20017;-80
2022/11/01 12:07:28;;;;;;;6.28;1.77;;;;;;;15.83;64.15;101312.69;5234508;28;20029;-79
2022/11/01 12:10:05;;;;;;;7.88;2.28;;;;;;;15.83;64.12;101305.13;5233557;28;20030;-78
2022/11/01 12:12:41;;;;;;;9.02;2.80;;;;;;;15.87;63.71;101305.31;5240192;28;20108;-77
2022/11/01 12:15:24;;;;;;;8.70;2.00;;;;;;;15.97;63.99;101307.88;5238603;28;20531;-77
2022/11/01 12:18:06;;;;;;;13.70;2.70;;;;;;;16.05;63.85;101309.09;5240966;28;20025;-80
2022/11/01 12:20:38;;;;;;;5.57;2.10;;;;;;;16.15;64.00;101308.03;5239391;28;20480;-81
2022/11/01 12:23:33;;;;;;;7.13;2.10;;;;;;;16.16;62.85;101301.31;5239555;28;20049;-80
2022/11/01 12:26:10;;;;;;;5.47;2.25;;;;;;;16.19;62.81;101309.06;5235045;28;20461;-80
2022/11/01 12:28:46;;;;;;;11.40;2.78;;;;;;;16.17;62.73;101311.34;5238579;28;20033;-81
2022/11/01 12:31:20;;;;;;;6.68;2.10;;;;;;;16.24;62.23;101306.97;5240483;28;20329;-82
2022/11/01 12:34:02;;;;;;;5.90;2.40;;;;;;;16.29;62.10;101297.63;5245732;28;20110;-83
2022/11/01 12:36:42;;;;;;;8.40;2.55;;;;;;;16.25;61.96;101294.59;5246405;28;20087;-85
2022/11/01 12:39:54;;;;;;;6.40;2.05;;;;;;;16.29;61.67;101297.63;5241238;28;20022;-81
2022/11/01 12:42:31;;;;;;;8.85;2.58;;;;;;;16.28;61.88;101290.34;5242753;28;20076;-83
2022/11/01 12:45:23;;;;;;;25.48;22.77;;;;;;;16.40;62.02;101282.22;5232804;28;20112;-77
2022/11/01 12:48:06;;;;;;;19.55;16.25;;;;;;;16.48;61.90;101295.44;5235927;28;20112;-82
2022/11/01 12:50:49;;;;;;;5.20;2.30;;;;;;;16.53;62.53;101274.88;5244188;28;20057;-82
2022/11/01 12:53:33;;;;;;;9.07;2.28;;;;;;;16.57;61.84;101281.50;5241174;28;20036;-80
2022/11/01 12:56:05;;;;;;;6.70;1.83;;;;;;;16.52;60.71;101282.47;5243237;28;20022;-80
2022/11/01 12:58:36;;;;;;;5.30;2.35;;;;;;;16.57;61.03;101284.31;5248173;28;20044;-80
2022/11/01 13:01:34;;;;;;;4.35;1.73;;;;;;;16.59;61.74;101287.63;5243171;28;20087;-79
2022/11/01 13:04:27;;;;;;;7.30;2.30;;;;;;;16.57;61.36;101286.28;5242828;28;20041;-81
2022/11/01 13:07:26;;;;;;;6.40;1.77;;;;;;;16.64;61.34;101281.91;5243834;28;20488;-80
2022/11/01 13:10:19;;;;;;;3.58;1.80;;;;;;;16.70;61.05;101274.19;5240858;28;20049;-80
2022/11/01 13:13:14;;;;;;;7.32;1.60;;;;;;;16.70;59.92;101274.19;5243053;28;20029;-77
2022/11/01 13:15:51;;;;;;;5.15;1.90;;;;;;;16.68;59.37;101287.66;5240660;28;20041;-77
2022/11/01 13:18:57;;;;;;;6.30;1.95;;;;;;;16.72;58.82;101283.09;5236536;28;20035;-75
2022/11/01 13:21:45;;;;;;;4.78;2.08;;;;;;;16.69;58.14;101272.50;5240363;28;20057;-81
2022/11/01 13:24:25;;;;;;;4.95;2.20;;;;;;;16.66;58.46;101271.19;5243050;28;20175;-80
2022/11/01 13:27:09;;;;;;;5.07;2.10;;;;;;;16.64;57.99;101273.50;5245067;28;20036;-76
2022/11/01 13:29:53;;;;;;;9.30;2.05;;;;;;;16.63;58.54;101273.81;5244937;28;20468;-80
2022/11/01 13:32:39;;;;;;;7.60;2.50;;;;;;;16.67;58.58;101272.03;5244342;28;20079;-79
2022/11/01 13:35:41;;;;;;;10.32;2.50;;;;;;;16.72;58.64;101261.50;5245828;28;20025;-76
2022/11/01 13:38:24;;;;;;;9.45;2.58;;;;;;;16.69;58.63;101262.16;5243296;28;20584;-75
2022/11/01 13:41:29;;;;;;;9.68;5.25;;;;;;;16.79;59.16;101263.84;5234836;28;20029;-80
2022/11/01 13:44:15;;;;;;;7.03;3.05;;;;;;;16.82;59.33;101268.84;5239153;28;20037;-78
2022/11/01 13:47:09;;;;;;;5.65;2.22;;;;;;;16.78;58.49;101267.81;5242587;28;20022;-79
2022/11/01 13:50:22;;;;;;;5.18;2.10;;;;;;;16.84;58.24;101260.09;5236826;28;20043;-79
2022/11/01 13:52:59;;;;;;;6.60;3.05;;;;;;;16.81;57.89;101264.38;5237056;28;20038;-78
2022/11/01 13:55:40;;;;;;;6.53;2.33;;;;;;;16.89;58.19;101259.97;5242692;28;20026;-77
2022/11/01 13:58:17;;;;;;;6.63;1.63;;;;;;;16.93;57.47;101263.78;5243252;28;20034;-83
2022/11/01 14:00:51;;;;;;;5.50;2.22;;;;;;;16.95;57.89;101265.09;5242323;28;20053;-75
2022/11/01 14:03:30;;;;;;;7.90;2.72;;;;;;;17.03;57.34;101271.91;5239977;28;20065;-77
2022/11/01 14:06:08;;;;;;;4.03;2.22;;;;;;;17.06;57.36;101265.66;5237654;28;20028;-76
2022/11/01 14:08:41;;;;;;;6.35;1.92;;;;;;;17.02;57.30;101263.81;5236356;28;20515;-76
2022/11/01 14:11:43;;;;;;;5.90;2.10;;;;;;;17.01;57.61;101271.38;5239069;28;20420;-77
2022/11/01 14:14:29;;;;;;;34.83;30.65;;;;;;;17.05;57.14;101277.16;5246484;28;20035;-78
2022/11/01 14:17:19;;;;;;;6.35;2.10;;;;;;;17.08;57.15;101273.75;5242003;28;20116;-75
2022/11/01 14:19:57;;;;;;;8.32;2.60;;;;;;;17.04;57.47;101278.31;5235275;28;20061;-75
2022/11/01 14:22:31;;;;;;;10.77;3.70;;;;;;;17.05;56.92;101285.56;5245011;28;20480;-77
2022/11/01 14:25:22;;;;;;;5.45;2.40;;;;;;;17.07;56.51;101277.66;5241628;28;20052;-74
2022/11/01 14:28:15;;;;;;;3.65;1.67;;;;;;;17.08;56.09;101282.97;5236336;28;20373;-73
2022/11/01 14:30:49;;;;;;;5.38;1.67;;;;;;;17.07;56.29;101284.09;5242500;28;20034;-72
2022/11/01 14:33:21;;;;;;;9.48;2.78;;;;;;;16.95;55.72;101276.31;5243462;28;20025;-73
2022/11/01 14:35:55;;;;;;;9.73;3.03;;;;;;;17.03;56.23;101276.69;5240719;28;20362;-73
2022/11/01 14:38:34;;;;;;;7.68;2.95;;;;;;;16.91;56.12;101288.47;5241276;28;20033;-72
2022/11/01 14:41:07;;;;;;;6.25;2.35;;;;;;;16.93;55.26;101280.59;5238876;28;20116;-73
2022/11/01 14:43:43;;;;;;;6.50;2.28;;;;;;;16.88;55.52;101280.72;5233452;28;20026;-77
2022/11/01 14:46:21;;;;;;;5.97;2.08;;;;;;;16.83;55.91;101283.66;5240177;28;20017;-76
2022/11/01 14:49:17;;;;;;;8.15;1.77;;;;;;;16.83;55.60;101284.50;5239846;28;20037;-77
2022/11/01 14:51:58;;;;;;;4.47;1.60;;;;;;;16.74;55.84;101280.78;5234490;28;20017;-77
2022/11/01 14:54:30;;;;;;;4.22;2.55;;;;;;;16.70;55.43;101289.00;5241142;28;20030;-76
2022/11/01 14:57:02;;;;;;;4.22;1.65;;;;;;;16.72;56.32;101291.50;5240999;28;20021;-79
2022/11/01 14:59:34;;;;;;;6.45;2.55;;;;;;;16.64;55.84;101281.03;5241160;28;20101;-76
2022/11/01 15:02:06;;;;;;;8.52;2.65;;;;;;;16.68;56.18;101260.47;5241082;28;20472;-77
2022/11/01 15:04:43;;;;;;;6.25;1.95;;;;;;;16.58;56.46;101260.75;5239207;28;20121;-77
2022/11/01 15:07:23;;;;;;;6.20;1.77;;;;;;;16.60;58.39;101269.66;5234487;28;20029;-76
2022/11/01 15:10:06;;;;;;;6.85;2.17;;;;;;;16.53;57.36;101274.88;5238934;28;20029;-77
2022/11/01 15:12:57;;;;;;;6.57;2.28;;;;;;;16.52;57.65;101271.25;5240726;28;20424;-73
2022/11/01 15:15:35;;;;;;;6.30;1.83;;;;;;;16.47;57.95;101257.41;5240180;28;20029;-72
2022/11/01 15:18:19;;;;;;;6.03;1.83;;;;;;;16.45;58.20;101262.47;5238176;28;20091;-71
2022/11/01 15:20:54;;;;;;;5.13;2.03;;;;;;;16.44;58.48;101263.66;5236670;28;20472;-73
2022/11/01 15:23:34;;;;;;;5.63;1.98;;;;;;;16.46;60.67;101274.50;5239291;28;20053;-73
2022/11/01 15:26:13;;;;;;;5.78;2.40;;;;;;;16.39;59.03;101271.34;5238276;28;20022;-75
2022/11/01 15:28:51;;;;;;;10.02;2.80;;;;;;;16.33;59.08;101275.41;5240546;28;20041;-76
2022/11/01 15:31:23;;;;;;;11.25;2.17;;;;;;;16.26;59.28;101270.28;5240001;28;20408;-76
2022/11/01 15:34:04;;;;;;;5.03;2.17;;;;;;;16.21;59.79;101268.41;5248174;28;20033;-76
2022/11/01 15:36:37;;;;;;;8.02;4.85;;;;;;;16.31;61.33;101270.16;5232488;28;20026;-75
2022/11/01 15:39:23;;;;;;;7.18;2.20;;;;;;;16.24;60.03;101267.78;5239820;28;20029;-75
2022/11/01 15:41:56;;;;;;;7.75;3.10;;;;;;;16.26;62.57;101265.50;5240574;28;20123;-75
2022/11/01 15:44:31;;;;;;;6.50;3.05;;;;;;;16.14;59.86;101267.22;5244686;28;20111;-73
2022/11/01 15:47:05;;;;;;;5.93;2.20;;;;;;;16.18;62.32;101265.41;5239032;28;20025;-73
2022/11/01 15:49:48;;;;;;;7.00;2.60;;;;;;;16.08;60.66;101274.91;5239885;28;20033;-74
2022/11/01 15:52:31;;;;;;;8.50;2.15;;;;;;;16.07;60.52;101271.25;5240156;28;20450;-74
2022/11/01 15:55:19;;;;;;;7.00;1.88;;;;;;;15.98;60.73;101267.56;5236434;28;20393;-74
2022/11/01 15:57:59;;;;;;;7.72;2.53;;;;;;;15.89;60.58;101266.66;5237888;28;20079;-74
2022/11/01 16:00:43;;;;;;;16.63;13.52;;;;;;;15.77;60.99;101269.19;5240105;28;20049;-74
2022/11/01 16:03:29;;;;;;;6.43;1.88;;;;;;;15.74;60.70;101265.03;5248332;28;20108;-74
2022/11/01 16:06:05;;;;;;;8.25;3.05;;;;;;;15.68;60.87;101266.28;5238872;28;20485;-74
2022/11/01 16:08:41;;;;;;;12.30;3.53;;;;;;;15.62;61.28;101273.97;5240172;28;20034;-75
2022/11/01 16:11:17;;;;;;;7.68;2.92;;;;;;;15.65;61.42;101269.72;5230604;28;20022;-74
2022/11/01 16:13:52;;;;;;;6.88;2.92;;;;;;;15.66;61.91;101286.16;5244277;28;20033;-74
2022/11/01 16:16:24;;;;;;;6.90;2.33;;;;;;;15.53;61.09;101281.41;5239760;28;20523;-74
2022/11/01 16:18:55;;;;;;;9.50;2.50;;;;;;;15.58;61.62;101277.69;5239536;28;20064;-73
2022/11/01 16:21:29;;;;;;;12.18;2.30;;;;;;;15.58;61.82;101280.47;5240598;28;20115;-75
2022/11/01 16:24:19;;;;;;;6.40;2.03;;;;;;;15.53;61.65;101281.41;5248818;28;20120;-77
2022/11/01 16:27:00;;;;;;;8.60;3.72;;;;;;;15.48;62.05;101295.50;5234758;28;20109;-77
2022/11/01 16:29:47;;;;;;;8.18;2.33;;;;;;;15.50;61.83;101298.81;5244574;28;20021;-73
2022/11/01 16:32:32;;;;;;;7.65;2.30;;;;;;;15.46;62.28;101300.56;5241416;28;20017;-72
2022/11/01 16:35:43;;;;;;;6.85;2.38;;;;;;;15.48;62.31;101298.28;5241317;28;20033;-72
2022/11/01 16:38:25;;;;;;;10.98;2.95;;;;;;;15.34;62.92;101303.06;5205497;28;20026;-76
2022/11/01 16:41:03;;;;;;;8.52;1.92;;;;;;;15.41;62.55;101307.09;5219938;28;20388;-75
2022/11/01 16:43:34;;;;;;;4.90;2.22;;;;;;;15.37;62.66;101303.28;5236831;28;20048;-74
2022/11/01 16:46:06;;;;;;;9.35;2.70;;;;;;;15.36;62.87;101306.38;5243191;28;20638;-75
2022/11/01 16:48:51;;;;;;;11.32;3.50;;;;;;;15.36;62.81;101298.81;5237172;28;20354;-74
2022/11/01 16:51:27;;;;;;;11.55;3.78;;;;;;;15.31;63.35;101300.88;5238445;28;20108;-74
2022/11/01 16:53:59;;;;;;;9.85;3.00;;;;;;;15.31;63.25;101309.28;5243511;28;20064;-76
2022/11/01 16:56:36;;;;;;;7.13;2.47;;;;;;;15.31;63.20;101303.69;5242836;28;20052;-76
2022/11/01 16:59:21;;;;;;;11.35;3.47;;;;;;;15.31;63.45;101303.69;5243245;28;20354;-76
2022/11/01 17:01:54;;;;;;;8.77;3.13;;;;;;;15.35;64.55;101307.53;5241925;28;20412;-75
2022/11/01 17:04:27;;;;;;;9.63;4.22;;;;;;;15.25;63.99;101307.72;5251446;28;20025;-74
2022/11/01 17:06:58;;;;;;;10.65;2.50;;;;;;;15.23;64.05;101308.84;5238135;28;20092;-73
2022/11/01 17:09:31;;;;;;;10.07;2.53;;;;;;;15.21;64.18;101307.50;5243146;28;20033;-75
2022/11/01 17:12:03;;;;;;;6.13;2.50;;;;;;;15.18;64.35;101308.94;5243015;28;20029;-75
2022/11/01 17:14:36;;;;;;;9.68;2.97;;;;;;;15.14;64.22;101302.34;5243405;28;20095;-75
2022/11/01 17:17:17;;;;;;;8.55;2.22;;;;;;;15.13;64.47;101300.66;5242414;28;20084;-76
2022/11/01 17:19:57;;;;;;;9.23;3.08;;;;;;;15.09;65.02;101288.47;5243672;28;20222;-75
2022/11/01 17:22:35;;;;;;;7.75;2.47;;;;;;;15.09;64.91;101291.28;5245994;28;20496;-72
2022/11/01 17:25:14;;;;;;;9.32;2.28;;;;;;;15.04;65.29;101291.38;5246028;28;20495;-71
2022/11/01 17:27:50;;;;;;;7.78;2.45;;;;;;;15.03;64.91;101294.47;5242886;28;20473;-73
2022/11/01 17:30:21;;;;;;;8.70;3.35;;;;;;;15.03;65.27;101294.47;5242086;28;20029;-73
2022/11/01 17:32:53;;;;;;;8.25;3.40;;;;;;;14.97;65.33;101290.94;5242300;28;20017;-74
